sensor_id;sensor_type;location;lat;lon;timestamp;pressure;altitude;pressure_sealevel;temperature;humidity
40730;BME280;26418;50.070;8.436;2023-05-19T00:01:10;100751.69;;;11.51;52.62
40730;BME280;26418;50.070;8.436;2023-05-19T00:03:40;100750.88;;;11.50;52.70
40730;BME280;26418;50.070;8.436;2023-05-19T00:06:13;100730.31;;;11.49;52.40
40730;BME280;26418;50.070;8.436;2023-05-19T00:08:39;100737.34;;;11.50;52.56
40730;BME280;26418;50.070;8.436;2023-05-19T00:11:05;100724.97;;;11.39;52.72
40730;BME280;26418;50.070;8.436;2023-05-19T00:13:31;100742.53;;;11.46;52.99
40730;BME280;26418;50.070;8.436;2023-05-19T00:15:57;100733.94;;;11.39;52.90
40730;BME280;26418;50.070;8.436;2023-05-19T00:18:22;100743.09;;;11.43;52.80
40730;BME280;26418;50.070;8.436;2023-05-19T00:20:48;100746.16;;;11.37;53.15
40730;BME280;26418;50.070;8.436;2023-05-19T00:23:13;100745.56;;;11.40;52.77
40730;BME280;26418;50.070;8.436;2023-05-19T00:25:39;100742.06;;;11.39;52.85
40730;BME280;26418;50.070;8.436;2023-05-19T00:28:05;100742.31;;;11.38;52.79
40730;BME280;26418;50.070;8.436;2023-05-19T00:30:31;100740.72;;;11.37;52.71
40730;BME280;26418;50.070;8.436;2023-05-19T00:32:56;100736.72;;;11.29;52.88
40730;BME280;26418;50.070;8.436;2023-05-19T00:35:22;100734.88;;;11.24;52.93
40730;BME280;26418;50.070;8.436;2023-05-19T00:37:48;100727.31;;;11.21;53.05
40730;BME280;26418;50.070;8.436;2023-05-19T00:40:13;100734.34;;;11.22;53.19
40730;BME280;26418;50.070;8.436;2023-05-19T00:42:40;100723.25;;;11.24;53.29
40730;BME280;26418;50.070;8.436;2023-05-19T00:45:06;100724.59;;;11.21;53.11
40730;BME280;26418;50.070;8.436;2023-05-19T00:47:32;100729.16;;;11.26;52.97
40730;BME280;26418;50.070;8.436;2023-05-19T00:49:58;100723.75;;;11.26;53.14
40730;BME280;26418;50.070;8.436;2023-05-19T00:52:24;100718.09;;;11.22;53.04
40730;BME280;26418;50.070;8.436;2023-05-19T00:54:50;100724.59;;;11.21;53.37
40730;BME280;26418;50.070;8.436;2023-05-19T00:57:16;100712.97;;;11.21;53.46
40730;BME280;26418;50.070;8.436;2023-05-19T00:59:42;100712.97;;;11.21;53.12
40730;BME280;26418;50.070;8.436;2023-05-19T01:02:08;100715.16;;;11.19;53.30
40730;BME280;26418;50.070;8.436;2023-05-19T01:04:35;100714.91;;;11.15;53.49
40730;BME280;26418;50.070;8.436;2023-05-19T01:07:00;100714.63;;;11.16;53.54
40730;BME280;26418;50.070;8.436;2023-05-19T01:09:26;100704.09;;;11.15;53.70
40730;BME280;26418;50.070;8.436;2023-05-19T01:11:52;100707.09;;;11.13;53.60
40730;BME280;26418;50.070;8.436;2023-05-19T01:14:18;100685.50;;;11.03;53.75
40730;BME280;26418;50.070;8.436;2023-05-19T01:16:49;100700.59;;;11.09;53.90
40730;BME280;26418;50.070;8.436;2023-05-19T01:30:25;100692.63;;;10.94;54.48
40730;BME280;26418;50.070;8.436;2023-05-19T01:32:58;100690.81;;;10.84;54.56
40730;BME280;26418;50.070;8.436;2023-05-19T01:35:25;100699.47;;;10.86;54.67
40730;BME280;26418;50.070;8.436;2023-05-19T01:37:54;100705.91;;;10.95;54.30
40730;BME280;26418;50.070;8.436;2023-05-19T01:40:22;100699.38;;;10.96;54.52
40730;BME280;26418;50.070;8.436;2023-05-19T01:42:50;100692.69;;;10.83;54.54
40730;BME280;26418;50.070;8.436;2023-05-19T01:45:17;100704.09;;;10.80;54.63
40730;BME280;26418;50.070;8.436;2023-05-19T01:47:45;100699.53;;;10.76;54.98
40730;BME280;26418;50.070;8.436;2023-05-19T01:50:11;100701.13;;;10.82;54.84
40730;BME280;26418;50.070;8.436;2023-05-19T01:52:36;100703.28;;;10.80;55.08
40730;BME280;26418;50.070;8.436;2023-05-19T01:55:02;100703.66;;;10.68;55.17
40730;BME280;26418;50.070;8.436;2023-05-19T01:57:32;100705.25;;;10.69;55.36
40730;BME280;26418;50.070;8.436;2023-05-19T02:00:15;100707.19;;;10.63;55.41
40730;BME280;26418;50.070;8.436;2023-05-19T02:11:07;100709.44;;;10.51;56.28
40730;BME280;26418;50.070;8.436;2023-05-19T02:13:36;100703.69;;;10.63;55.61
40730;BME280;26418;50.070;8.436;2023-05-19T02:16:07;100709.91;;;10.63;55.35
40730;BME280;26418;50.070;8.436;2023-05-19T02:18:33;100708.25;;;10.67;55.52
40730;BME280;26418;50.070;8.436;2023-05-19T02:21:00;100707.94;;;10.74;55.22
40730;BME280;26418;50.070;8.436;2023-05-19T02:23:26;100710.66;;;10.74;55.37
40730;BME280;26418;50.070;8.436;2023-05-19T02:25:51;100705.78;;;10.71;55.42
40730;BME280;26418;50.070;8.436;2023-05-19T02:28:17;100710.38;;;10.76;55.31
40730;BME280;26418;50.070;8.436;2023-05-19T02:30:43;100704.19;;;10.70;55.28
40730;BME280;26418;50.070;8.436;2023-05-19T02:33:08;100705.84;;;10.66;55.47
40730;BME280;26418;50.070;8.436;2023-05-19T02:35:36;100699.66;;;10.60;55.55
40730;BME280;26418;50.070;8.436;2023-05-19T02:38:02;100685.16;;;10.41;55.89
40730;BME280;26418;50.070;8.436;2023-05-19T02:40:27;100700.50;;;10.56;55.89
40730;BME280;26418;50.070;8.436;2023-05-19T02:42:53;100694.25;;;10.60;55.78
40730;BME280;26418;50.070;8.436;2023-05-19T02:45:18;100692.09;;;10.57;55.86
40730;BME280;26418;50.070;8.436;2023-05-19T02:47:44;100692.03;;;10.62;55.59
40730;BME280;26418;50.070;8.436;2023-05-19T02:50:10;100696.94;;;10.60;55.67
40730;BME280;26418;50.070;8.436;2023-05-19T02:52:35;100682.91;;;10.58;55.83
40730;BME280;26418;50.070;8.436;2023-05-19T02:55:01;100693.47;;;10.54;55.93
40730;BME280;26418;50.070;8.436;2023-05-19T02:57:28;100673.16;;;10.57;56.12
40730;BME280;26418;50.070;8.436;2023-05-19T02:59:54;100685.31;;;10.60;55.96
40730;BME280;26418;50.070;8.436;2023-05-19T03:02:19;100676.94;;;10.56;56.22
40730;BME280;26418;50.070;8.436;2023-05-19T03:04:45;100682.66;;;10.54;56.34
40730;BME280;26418;50.070;8.436;2023-05-19T03:07:10;100682.66;;;10.54;56.08
40730;BME280;26418;50.070;8.436;2023-05-19T03:09:38;100687.22;;;10.54;56.11
40730;BME280;26418;50.070;8.436;2023-05-19T03:12:04;100678.88;;;10.50;56.10
40730;BME280;26418;50.070;8.436;2023-05-19T03:14:35;100679.72;;;10.46;56.07
40730;BME280;26418;50.070;8.436;2023-05-19T03:17:04;100684.03;;;10.52;56.01
40730;BME280;26418;50.070;8.436;2023-05-19T03:19:32;100684.88;;;10.47;55.93
40730;BME280;26418;50.070;8.436;2023-05-19T03:21:57;100684.31;;;10.45;55.85
40730;BME280;26418;50.070;8.436;2023-05-19T03:24:23;100691.59;;;10.50;55.80
40730;BME280;26418;50.070;8.436;2023-05-19T03:26:49;100686.44;;;10.53;55.51
40730;BME280;26418;50.070;8.436;2023-05-19T03:29:15;100693.19;;;10.56;55.73
40730;BME280;26418;50.070;8.436;2023-05-19T03:31:40;100674.31;;;10.46;55.96
40730;BME280;26418;50.070;8.436;2023-05-19T03:34:06;100685.13;;;10.51;55.75
40730;BME280;26418;50.070;8.436;2023-05-19T03:36:31;100689.69;;;10.56;55.94
40730;BME280;26418;50.070;8.436;2023-05-19T03:38:57;100695.09;;;10.56;55.85
40730;BME280;26418;50.070;8.436;2023-05-19T03:41:23;100690.22;;;10.58;55.91
40730;BME280;26418;50.070;8.436;2023-05-19T03:43:48;100696.66;;;10.62;55.90
40730;BME280;26418;50.070;8.436;2023-05-19T03:46:14;100700.25;;;10.52;56.14
40730;BME280;26418;50.070;8.436;2023-05-19T03:48:40;100699.44;;;10.51;56.36
40730;BME280;26418;50.070;8.436;2023-05-19T03:51:05;100701.59;;;10.49;56.30
40730;BME280;26418;50.070;8.436;2023-05-19T03:53:31;100692.97;;;10.47;56.35
40730;BME280;26418;50.070;8.436;2023-05-19T03:55:57;100696.72;;;10.51;56.16
40730;BME280;26418;50.070;8.436;2023-05-19T03:58:23;100701.34;;;10.51;56.36
40730;BME280;26418;50.070;8.436;2023-05-19T04:00:49;100663.28;;;10.37;56.06
40730;BME280;26418;50.070;8.436;2023-05-19T04:03:15;100694.31;;;10.50;56.27
40730;BME280;26418;50.070;8.436;2023-05-19T04:05:40;100696.19;;;10.54;56.14
40730;BME280;26418;50.070;8.436;2023-05-19T04:08:06;100695.09;;;10.56;56.20
40730;BME280;26418;50.070;8.436;2023-05-19T04:10:32;100679.94;;;10.54;56.23
40730;BME280;26418;50.070;8.436;2023-05-19T04:12:57;100692.09;;;10.57;56.20
40730;BME280;26418;50.070;8.436;2023-05-19T04:15:23;100675.94;;;10.47;56.07
40730;BME280;26418;50.070;8.436;2023-05-19T04:17:48;100698.59;;;10.56;56.29
40730;BME280;26418;50.070;8.436;2023-05-19T04:20:14;100699.91;;;10.59;56.28
40730;BME280;26418;50.070;8.436;2023-05-19T04:22:39;100706.69;;;10.56;56.87
40730;BME280;26418;50.070;8.436;2023-05-19T04:25:05;100709.41;;;10.56;56.62
40730;BME280;26418;50.070;8.436;2023-05-19T04:27:31;100708.31;;;10.57;56.49
40730;BME280;26418;50.070;8.436;2023-05-19T04:30:01;100696.94;;;10.60;56.61
40730;BME280;26418;50.070;8.436;2023-05-19T04:32:27;100689.38;;;10.57;56.57
40730;BME280;26418;50.070;8.436;2023-05-19T04:34:53;100702.84;;;10.67;56.31
40730;BME280;26418;50.070;8.436;2023-05-19T04:37:19;100702.81;;;10.73;56.06
40730;BME280;26418;50.070;8.436;2023-05-19T04:39:44;100702.25;;;10.76;56.14
40730;BME280;26418;50.070;8.436;2023-05-19T04:42:11;100707.66;;;10.76;56.52
40730;BME280;26418;50.070;8.436;2023-05-19T04:44:37;100702.56;;;10.69;56.39
40730;BME280;26418;50.070;8.436;2023-05-19T04:47:08;100703.88;;;10.72;56.49
40730;BME280;26418;50.070;8.436;2023-05-19T04:49:34;100717.72;;;10.70;56.67
40730;BME280;26418;50.070;8.436;2023-05-19T04:52:07;100710.13;;;10.67;56.89
40730;BME280;26418;50.070;8.436;2023-05-19T04:54:34;100715.25;;;10.74;56.59
40730;BME280;26418;50.070;8.436;2023-05-19T04:57:00;100710.91;;;10.78;56.43
40730;BME280;26418;50.070;8.436;2023-05-19T04:59:26;100719.75;;;10.89;56.56
40730;BME280;26418;50.070;8.436;2023-05-19T05:01:51;100709.16;;;10.92;56.31
40730;BME280;26418;50.070;8.436;2023-05-19T05:04:17;100711.31;;;10.95;56.44
40730;BME280;26418;50.070;8.436;2023-05-19T05:06:42;100709.69;;;10.94;56.51
40730;BME280;26418;50.070;8.436;2023-05-19T05:09:15;100708.59;;;10.95;56.58
40730;BME280;26418;50.070;8.436;2023-05-19T05:11:42;100708.53;;;11.00;56.67
40730;BME280;26418;50.070;8.436;2023-05-19T05:14:07;100710.69;;;11.04;56.39
40730;BME280;26418;50.070;8.436;2023-05-19T05:16:33;100703.94;;;11.01;56.05
40730;BME280;26418;50.070;8.436;2023-05-19T05:19:00;100710.09;;;11.07;56.37
40730;BME280;26418;50.070;8.436;2023-05-19T05:21:27;100713.34;;;11.09;56.57
40730;BME280;26418;50.070;8.436;2023-05-19T05:23:53;100717.63;;;11.15;56.64
40730;BME280;26418;50.070;8.436;2023-05-19T05:26:19;100715.69;;;11.21;56.68
40730;BME280;26418;50.070;8.436;2023-05-19T05:28:48;100711.59;;;11.23;56.75
40730;BME280;26418;50.070;8.436;2023-05-19T05:31:14;100725.34;;;11.32;56.62
40730;BME280;26418;50.070;8.436;2023-05-19T05:33:39;100710.34;;;11.40;56.67
40730;BME280;26418;50.070;8.436;2023-05-19T05:36:05;100712.16;;;11.50;59.93
40730;BME280;26418;50.070;8.436;2023-05-19T05:38:31;100709.09;;;11.56;57.32
40730;BME280;26418;50.070;8.436;2023-05-19T05:40:57;100704.13;;;11.63;57.08
40730;BME280;26418;50.070;8.436;2023-05-19T05:43:22;100706.16;;;11.77;57.15
40730;BME280;26418;50.070;8.436;2023-05-19T05:45:48;100694.69;;;11.85;58.40
40730;BME280;26418;50.070;8.436;2023-05-19T05:48:14;100700.47;;;12.03;56.67
40730;BME280;26418;50.070;8.436;2023-05-19T05:50:41;100700.31;;;12.13;55.19
40730;BME280;26418;50.070;8.436;2023-05-19T05:53:08;100698.13;;;12.15;54.06
40730;BME280;26418;50.070;8.436;2023-05-19T05:55:34;100697.47;;;12.23;53.93
40730;BME280;26418;50.070;8.436;2023-05-19T05:58:00;100700.56;;;12.36;54.16
40730;BME280;26418;50.070;8.436;2023-05-19T06:00:26;100709.69;;;12.45;54.70
40730;BME280;26418;50.070;8.436;2023-05-19T06:02:52;100710.53;;;12.60;53.29
40730;BME280;26418;50.070;8.436;2023-05-19T06:05:18;100694.91;;;12.70;52.17
40730;BME280;26418;50.070;8.436;2023-05-19T06:07:44;100702.16;;;12.75;52.06
40730;BME280;26418;50.070;8.436;2023-05-19T06:10:10;100696.38;;;12.82;51.32
40730;BME280;26418;50.070;8.436;2023-05-19T06:12:36;100689.63;;;12.79;51.37
40730;BME280;26418;50.070;8.436;2023-05-19T06:15:05;100702.00;;;12.85;51.90
40730;BME280;26418;50.070;8.436;2023-05-19T06:17:32;100694.28;;;12.93;51.87
40730;BME280;26418;50.070;8.436;2023-05-19T06:20:00;100685.03;;;12.94;51.61
40730;BME280;26418;50.070;8.436;2023-05-19T06:22:26;100695.72;;;13.04;50.84
40730;BME280;26418;50.070;8.436;2023-05-19T06:24:52;100689.31;;;13.14;50.27
40730;BME280;26418;50.070;8.436;2023-05-19T06:27:18;100704.13;;;13.21;50.26
40730;BME280;26418;50.070;8.436;2023-05-19T06:29:43;100689.00;;;13.15;49.99
40730;BME280;26418;50.070;8.436;2023-05-19T06:32:09;100692.66;;;13.25;50.49
40730;BME280;26418;50.070;8.436;2023-05-19T06:34:35;100677.25;;;13.20;50.77
40730;BME280;26418;50.070;8.436;2023-05-19T06:37:02;100700.94;;;13.33;49.63
40730;BME280;26418;50.070;8.436;2023-05-19T06:39:28;100702.75;;;13.38;49.52
40730;BME280;26418;50.070;8.436;2023-05-19T06:41:54;100684.63;;;13.33;49.57
40730;BME280;26418;50.070;8.436;2023-05-19T06:44:19;100691.81;;;13.43;50.11
40730;BME280;26418;50.070;8.436;2023-05-19T06:46:45;100694.34;;;13.54;49.96
40730;BME280;26418;50.070;8.436;2023-05-19T06:49:10;100688.00;;;13.58;48.67
40730;BME280;26418;50.070;8.436;2023-05-19T06:51:36;100703.19;;;13.59;48.66
40730;BME280;26418;50.070;8.436;2023-05-19T06:54:01;100690.31;;;13.51;48.35
40730;BME280;26418;50.070;8.436;2023-05-19T06:56:27;100686.78;;;13.50;48.91
40730;BME280;26418;50.070;8.436;2023-05-19T06:58:53;100691.31;;;13.55;48.93
40730;BME280;26418;50.070;8.436;2023-05-19T07:01:18;100680.13;;;13.57;48.95
40730;BME280;26418;50.070;8.436;2023-05-19T07:03:44;100689.09;;;13.71;49.26
40730;BME280;26418;50.070;8.436;2023-05-19T07:06:09;100695.53;;;13.75;49.23
40730;BME280;26418;50.070;8.436;2023-05-19T07:08:35;100694.63;;;13.80;48.51
40730;BME280;26418;50.070;8.436;2023-05-19T07:11:01;100695.22;;;13.91;48.77
40730;BME280;26418;50.070;8.436;2023-05-19T07:13:27;100689.69;;;13.96;48.43
40730;BME280;26418;50.070;8.436;2023-05-19T07:15:52;100675.97;;;14.01;47.98
40730;BME280;26418;50.070;8.436;2023-05-19T07:18:21;100676.47;;;14.03;48.67
40730;BME280;26418;50.070;8.436;2023-05-19T07:20:46;100680.00;;;14.04;47.42
40730;BME280;26418;50.070;8.436;2023-05-19T07:23:14;100666.81;;;13.97;47.83
40730;BME280;26418;50.070;8.436;2023-05-19T07:25:40;100669.44;;;13.88;48.31
40730;BME280;26418;50.070;8.436;2023-05-19T07:28:05;100680.00;;;14.04;48.00
40730;BME280;26418;50.070;8.436;2023-05-19T07:30:31;100663.59;;;14.09;47.93
40730;BME280;26418;50.070;8.436;2023-05-19T07:32:56;100669.91;;;14.18;47.47
40730;BME280;26418;50.070;8.436;2023-05-19T07:35:22;100678.94;;;14.27;48.05
40730;BME280;26418;50.070;8.436;2023-05-19T07:37:48;100669.38;;;14.30;47.71
40730;BME280;26418;50.070;8.436;2023-05-19T07:40:14;100664.91;;;14.34;47.41
40730;BME280;26418;50.070;8.436;2023-05-19T07:42:40;100668.13;;;14.36;47.14
40730;BME280;26418;50.070;8.436;2023-05-19T07:45:09;100668.44;;;14.35;46.92
40730;BME280;26418;50.070;8.436;2023-05-19T07:47:35;100661.88;;;14.36;47.33
40730;BME280;26418;50.070;8.436;2023-05-19T07:50:00;100664.88;;;14.48;47.33
40730;BME280;26418;50.070;8.436;2023-05-19T07:52:26;100669.75;;;14.60;46.75
40730;BME280;26418;50.070;8.436;2023-05-19T07:54:51;100672.03;;;14.81;46.65
40730;BME280;26418;50.070;8.436;2023-05-19T07:57:17;100662.53;;;15.01;46.76
40730;BME280;26418;50.070;8.436;2023-05-19T07:59:43;100659.13;;;15.27;46.41
40730;BME280;26418;50.070;8.436;2023-05-19T08:02:09;100657.06;;;15.32;45.47
40730;BME280;26418;50.070;8.436;2023-05-19T08:04:34;100657.09;;;15.41;45.55
40730;BME280;26418;50.070;8.436;2023-05-19T08:07:00;100655.22;;;15.50;45.33
40730;BME280;26418;50.070;8.436;2023-05-19T08:09:26;100653.78;;;15.53;45.61
40730;BME280;26418;50.070;8.436;2023-05-19T08:11:51;100647.88;;;15.60;45.87
40730;BME280;26418;50.070;8.436;2023-05-19T08:14:19;100655.63;;;15.75;44.98
40730;BME280;26418;50.070;8.436;2023-05-19T08:16:47;100653.91;;;15.88;45.28
40730;BME280;26418;50.070;8.436;2023-05-19T08:19:13;100650.72;;;16.03;45.09
40730;BME280;26418;50.070;8.436;2023-05-19T08:21:38;100647.97;;;16.12;44.72
40730;BME280;26418;50.070;8.436;2023-05-19T08:24:06;100649.44;;;16.27;44.85
40730;BME280;26418;50.070;8.436;2023-05-19T08:26:32;100652.50;;;16.34;44.50
40730;BME280;26418;50.070;8.436;2023-05-19T08:28:58;100652.19;;;16.54;44.89
40730;BME280;26418;50.070;8.436;2023-05-19T08:31:23;100649.25;;;16.76;44.64
40730;BME280;26418;50.070;8.436;2023-05-19T08:33:49;100640.03;;;17.07;44.10
40730;BME280;26418;50.070;8.436;2023-05-19T08:36:15;100640.47;;;17.18;43.39
40730;BME280;26418;50.070;8.436;2023-05-19T08:38:41;100634.84;;;17.23;42.80
40730;BME280;26418;50.070;8.436;2023-05-19T08:41:06;100631.97;;;17.11;43.59
40730;BME280;26418;50.070;8.436;2023-05-19T08:43:33;100630.38;;;17.10;43.68
40730;BME280;26418;50.070;8.436;2023-05-19T08:45:59;100623.28;;;17.18;43.85
40730;BME280;26418;50.070;8.436;2023-05-19T08:48:28;100627.50;;;17.45;43.23
40730;BME280;26418;50.070;8.436;2023-05-19T08:53:36;100622.91;;;17.88;42.56
40730;BME280;26418;50.070;8.436;2023-05-19T08:56:10;100616.75;;;18.00;41.29
40730;BME280;26418;50.070;8.436;2023-05-19T08:58:38;100608.56;;;18.12;40.69
40730;BME280;26418;50.070;8.436;2023-05-19T09:01:05;100603.56;;;18.14;39.81
40730;BME280;26418;50.070;8.436;2023-05-19T09:03:32;100605.22;;;18.28;39.80
40730;BME280;26418;50.070;8.436;2023-05-19T09:06:06;100602.13;;;18.50;40.34
40730;BME280;26418;50.070;8.436;2023-05-19T09:08:33;100601.56;;;18.57;39.80
40730;BME280;26418;50.070;8.436;2023-05-19T09:10:59;100584.81;;;18.59;39.37
40730;BME280;26418;50.070;8.436;2023-05-19T09:13:25;100595.59;;;18.89;38.86
40730;BME280;26418;50.070;8.436;2023-05-19T09:15:52;100588.69;;;19.04;38.61
40730;BME280;26418;50.070;8.436;2023-05-19T09:18:17;100573.13;;;18.95;37.70
40730;BME280;26418;50.070;8.436;2023-05-19T09:20:44;100585.47;;;19.01;38.32
40730;BME280;26418;50.070;8.436;2023-05-19T09:23:14;100578.94;;;19.19;37.79
40730;BME280;26418;50.070;8.436;2023-05-19T09:25:51;100575.78;;;19.16;37.04
40730;BME280;26418;50.070;8.436;2023-05-19T09:28:27;100581.56;;;19.40;37.01
40730;BME280;26418;50.070;8.436;2023-05-19T09:31:07;100581.88;;;19.75;37.37
40730;BME280;26418;50.070;8.436;2023-05-19T09:33:35;100569.78;;;19.76;35.51
40730;BME280;26418;50.070;8.436;2023-05-19T09:36:01;100576.56;;;19.54;35.86
40730;BME280;26418;50.070;8.436;2023-05-19T09:38:29;100564.28;;;19.64;35.60
40730;BME280;26418;50.070;8.436;2023-05-19T09:40:56;100570.00;;;19.71;35.86
40730;BME280;26418;50.070;8.436;2023-05-19T09:43:22;100565.94;;;19.81;35.80
40730;BME280;26418;50.070;8.436;2023-05-19T09:45:54;100568.28;;;19.79;35.39
40730;BME280;26418;50.070;8.436;2023-05-19T09:48:24;100563.38;;;19.85;34.59
40730;BME280;26418;50.070;8.436;2023-05-19T09:50:50;100551.44;;;19.93;35.70
40730;BME280;26418;50.070;8.436;2023-05-19T09:53:17;100548.06;;;20.28;35.73
40730;BME280;26418;50.070;8.436;2023-05-19T09:55:42;100552.31;;;20.70;34.74
40730;BME280;26418;50.070;8.436;2023-05-19T09:58:08;100558.28;;;21.04;33.55
40730;BME280;26418;50.070;8.436;2023-05-19T10:00:36;100544.69;;;20.95;33.30
40730;BME280;26418;50.070;8.436;2023-05-19T10:03:03;100548.00;;;20.85;32.62
40730;BME280;26418;50.070;8.436;2023-05-19T10:05:30;100551.53;;;21.01;32.81
40730;BME280;26418;50.070;8.436;2023-05-19T10:07:56;100548.06;;;21.04;32.78
40730;BME280;26418;50.070;8.436;2023-05-19T10:10:22;100547.50;;;21.31;33.28
40730;BME280;26418;50.070;8.436;2023-05-19T10:12:48;100532.88;;;21.62;32.54
40730;BME280;26418;50.070;8.436;2023-05-19T10:15:17;100534.00;;;21.97;31.83
40730;BME280;26418;50.070;8.436;2023-05-19T10:17:43;100532.94;;;22.25;30.56
40730;BME280;26418;50.070;8.436;2023-05-19T10:20:10;100545.41;;;22.19;30.17
40730;BME280;26418;50.070;8.436;2023-05-19T10:22:42;100548.41;;;22.10;29.67
40730;BME280;26418;50.070;8.436;2023-05-19T10:25:09;100538.56;;;21.70;29.86
40730;BME280;26418;50.070;8.436;2023-05-19T10:27:40;100545.44;;;21.44;31.12
40730;BME280;26418;50.070;8.436;2023-05-19T10:30:14;100535.38;;;21.51;31.61
40730;BME280;26418;50.070;8.436;2023-05-19T10:32:41;100524.34;;;21.32;31.56
40730;BME280;26418;50.070;8.436;2023-05-19T10:46:30;100527.38;;;22.64;30.58
40730;BME280;26418;50.070;8.436;2023-05-19T10:48:56;100524.59;;;22.64;30.48
40730;BME280;26418;50.070;8.436;2023-05-19T10:51:31;100520.84;;;22.53;30.56
40730;BME280;26418;50.070;8.436;2023-05-19T10:53:56;100513.34;;;22.30;31.31
40730;BME280;26418;50.070;8.436;2023-05-19T10:56:30;100503.88;;;22.51;31.34
40730;BME280;26418;50.070;8.436;2023-05-19T10:59:02;100505.16;;;22.80;29.96
40730;BME280;26418;50.070;8.436;2023-05-19T11:01:34;100515.19;;;22.92;29.62
40730;BME280;26418;50.070;8.436;2023-05-19T11:04:08;100504.00;;;23.08;30.15
40730;BME280;26418;50.070;8.436;2023-05-19T11:06:38;100500.66;;;23.49;28.99
40730;BME280;26418;50.070;8.436;2023-05-19T11:09:13;100504.41;;;23.67;29.14
40730;BME280;26418;50.070;8.436;2023-05-19T11:11:51;100505.94;;;23.61;28.37
40730;BME280;26418;50.070;8.436;2023-05-19T11:14:18;100510.22;;;23.89;27.16
40730;BME280;26418;50.070;8.436;2023-05-19T11:16:49;100498.41;;;23.92;26.33
40730;BME280;26418;50.070;8.436;2023-05-19T11:19:34;100504.63;;;23.82;26.54
40730;BME280;26418;50.070;8.436;2023-05-19T11:22:10;100503.13;;;23.58;27.16
40730;BME280;26418;50.070;8.436;2023-05-19T11:24:43;100498.03;;;23.60;27.46
40730;BME280;26418;50.070;8.436;2023-05-19T11:29:54;100482.63;;;23.59;28.43
40730;BME280;26418;50.070;8.436;2023-05-19T11:32:23;100495.75;;;23.65;28.57
40730;BME280;26418;50.070;8.436;2023-05-19T11:34:49;100493.91;;;23.46;28.56
40730;BME280;26418;50.070;8.436;2023-05-19T11:37:15;100490.91;;;23.28;29.19
40730;BME280;26418;50.070;8.436;2023-05-19T11:39:41;100487.78;;;23.03;29.91
40730;BME280;26418;50.070;8.436;2023-05-19T11:42:08;100485.69;;;22.69;29.65
40730;BME280;26418;50.070;8.436;2023-05-19T11:44:35;100483.97;;;22.84;30.08
40730;BME280;26418;50.070;8.436;2023-05-19T11:47:03;100490.22;;;23.35;28.57
40730;BME280;26418;50.070;8.436;2023-05-19T11:49:28;100479.19;;;23.08;28.81
40730;BME280;26418;50.070;8.436;2023-05-19T11:51:54;100475.69;;;23.11;29.06
40730;BME280;26418;50.070;8.436;2023-05-19T11:54:20;100468.16;;;23.08;29.81
40730;BME280;26418;50.070;8.436;2023-05-19T11:56:46;100476.00;;;23.06;29.95
40730;BME280;26418;50.070;8.436;2023-05-19T11:59:11;100466.88;;;23.29;29.55
40730;BME280;26418;50.070;8.436;2023-05-19T12:01:37;100477.25;;;23.39;29.62
40730;BME280;26418;50.070;8.436;2023-05-19T12:04:08;100474.75;;;23.27;29.13
40730;BME280;26418;50.070;8.436;2023-05-19T12:06:34;100474.03;;;23.06;30.01
40730;BME280;26418;50.070;8.436;2023-05-19T12:09:01;100474.56;;;22.89;29.61
40730;BME280;26418;50.070;8.436;2023-05-19T12:11:27;100472.41;;;22.52;30.62
40730;BME280;26418;50.070;8.436;2023-05-19T12:14:00;100480.09;;;22.19;31.81
40730;BME280;26418;50.070;8.436;2023-05-19T12:16:32;100458.03;;;21.96;32.55
40730;BME280;26418;50.070;8.436;2023-05-19T12:18:58;100474.28;;;22.24;33.16
40730;BME280;26418;50.070;8.436;2023-05-19T12:21:24;100468.47;;;22.53;32.88
40730;BME280;26418;50.070;8.436;2023-05-19T12:23:49;100468.44;;;22.99;33.14
40730;BME280;26418;50.070;8.436;2023-05-19T12:26:15;100463.41;;;23.35;31.00
40730;BME280;26418;50.070;8.436;2023-05-19T12:28:46;100453.34;;;23.50;31.47
40730;BME280;26418;50.070;8.436;2023-05-19T12:31:12;100459.72;;;23.54;29.92
40730;BME280;26418;50.070;8.436;2023-05-19T12:33:37;100458.38;;;23.14;31.55
40730;BME280;26418;50.070;8.436;2023-05-19T12:36:04;100470.06;;;23.31;31.30
40730;BME280;26418;50.070;8.436;2023-05-19T12:38:29;100459.09;;;23.38;31.22
40730;BME280;26418;50.070;8.436;2023-05-19T12:40:57;100470.00;;;23.58;30.59
40730;BME280;26418;50.070;8.436;2023-05-19T12:43:24;100453.63;;;23.76;30.48
40730;BME280;26418;50.070;8.436;2023-05-19T12:45:50;100455.22;;;23.77;29.68
40730;BME280;26418;50.070;8.436;2023-05-19T12:48:16;100446.66;;;23.85;30.57
40730;BME280;26418;50.070;8.436;2023-05-19T12:50:43;100450.31;;;23.97;30.27
40730;BME280;26418;50.070;8.436;2023-05-19T12:53:12;100439.22;;;23.93;29.84
40730;BME280;26418;50.070;8.436;2023-05-19T12:55:42;100433.41;;;24.02;30.05
40730;BME280;26418;50.070;8.436;2023-05-19T12:58:09;100442.44;;;23.95;30.61
40730;BME280;26418;50.070;8.436;2023-05-19T13:00:45;100435.63;;;23.89;30.25
40730;BME280;26418;50.070;8.436;2023-05-19T13:03:18;100439.06;;;23.79;30.63
40730;BME280;26418;50.070;8.436;2023-05-19T13:05:49;100424.25;;;23.60;31.19
40730;BME280;26418;50.070;8.436;2023-05-19T13:08:17;100419.91;;;23.59;31.88
40730;BME280;26418;50.070;8.436;2023-05-19T13:10:45;100419.06;;;23.89;31.68
40730;BME280;26418;50.070;8.436;2023-05-19T13:13:11;100420.03;;;24.04;30.61
40730;BME280;26418;50.070;8.436;2023-05-19T13:15:42;100436.50;;;23.97;30.79
40730;BME280;26418;50.070;8.436;2023-05-19T13:18:09;100428.34;;;23.70;30.90
40730;BME280;26418;50.070;8.436;2023-05-19T13:20:36;100421.59;;;23.33;31.54
40730;BME280;26418;50.070;8.436;2023-05-19T13:23:03;100423.91;;;23.01;31.82
40730;BME280;26418;50.070;8.436;2023-05-19T13:25:31;100415.84;;;22.88;32.19